Time;durP1;ratioP1;P1;durP2;ratioP2;P2;SDS_P1;SDS_P2;PMS_P1;PMS_P2;Temp;Humidity;BMP_temperature;BMP_pressure;BME280_temperature;BME280_humidity;BME280_pressure;Samples;Min_cycle;Max_cycle;Signal;HPM_P1;HPM_P2
2022/10/09 00:00:16;;;;;;;5.24;4.59;;;;;;;11.76;69.45;101384.38;490125;108;930511;-76
2022/10/09 00:01:22;;;;;;;4.16;3.86;;;;;;;11.78;69.44;101378.72;490338;108;930466;-76
2022/10/09 00:02:25;;;;;;;7.57;3.80;;;;;;;11.78;69.44;101378.72;490205;108;922586;-77
2022/10/09 00:03:27;;;;;;;4.15;3.75;;;;;;;11.78;69.45;101375.99;490374;108;922921;-77
2022/10/09 00:04:30;;;;;;;3.99;3.69;;;;;;;11.78;69.45;101370.53;490285;108;930467;-77
2022/10/09 00:05:33;;;;;;;4.17;3.87;;;;;;;11.76;69.41;101378.91;490306;108;930488;-77
2022/10/09 00:06:35;;;;;;;5.24;3.58;;;;;;;11.76;69.38;101376.19;490318;108;930473;-77
2022/10/09 00:07:38;;;;;;;5.62;4.23;;;;;;;11.75;69.40;101371.77;490418;108;922922;-78
2022/10/09 00:08:44;;;;;;;5.97;3.97;;;;;;;11.76;69.50;101381.65;490366;108;930521;-77
2022/10/09 00:09:47;;;;;;;4.97;4.07;;;;;;;11.75;69.46;101377.23;490174;108;930491;-78
2022/10/09 00:10:49;;;;;;;4.38;3.98;;;;;;;11.74;69.53;101370.10;490435;108;922488;-77
2022/10/09 00:11:52;;;;;;;4.35;3.89;;;;;;;11.74;69.42;101372.83;490376;108;930520;-77
2022/10/09 00:12:55;;;;;;;8.27;4.40;;;;;;;11.74;69.45;101372.83;490414;108;922531;-77
2022/10/09 00:13:58;;;;;;;4.51;4.21;;;;;;;11.73;69.46;101371.14;490399;108;922790;-79
2022/10/09 00:15:01;;;;;;;4.89;4.41;;;;;;;11.74;69.49;101366.52;490236;108;930484;-78
2022/10/09 00:16:09;;;;;;;4.27;3.86;;;;;;;11.73;69.50;101365.67;482722;108;923041;-77
2022/10/09 00:17:11;;;;;;;4.41;4.02;;;;;;;11.73;69.48;101371.14;474598;111;930565;-78
2022/10/09 00:18:16;;;;;;;4.25;3.81;;;;;;;11.71;69.43;101368.57;474732;111;923232;-77
2022/10/09 00:19:18;;;;;;;4.70;4.29;;;;;;;11.72;69.46;101363.95;474508;111;930788;-77
2022/10/09 00:20:21;;;;;;;4.09;3.79;;;;;;;11.71;69.48;101365.84;476232;110;922876;-77
2022/10/09 00:21:27;;;;;;;6.84;4.47;;;;;;;11.70;69.45;101364.15;476200;111;930537;-78
2022/10/09 00:22:29;;;;;;;3.79;3.50;;;;;;;11.71;69.49;101365.00;476056;111;931002;-77
2022/10/09 00:23:32;;;;;;;4.25;3.85;;;;;;;11.70;69.49;101366.88;476326;111;922498;-77
2022/10/09 00:24:35;;;;;;;4.43;4.06;;;;;;;11.70;69.50;101363.30;476155;111;930505;-77
2022/10/09 00:25:38;;;;;;;5.27;4.49;;;;;;;11.70;69.49;101364.15;476252;111;922980;-77
2022/10/09 00:26:40;;;;;;;4.33;3.93;;;;;;;11.70;69.47;101360.57;476247;111;930545;-78
2022/10/09 00:27:43;;;;;;;7.27;4.31;;;;;;;11.70;69.44;101363.30;476348;111;922981;-77
2022/10/09 00:28:47;;;;;;;4.33;3.94;;;;;;;11.69;69.48;101364.34;476140;111;922927;-77
2022/10/09 00:29:50;;;;;;;4.47;4.09;;;;;;;11.69;69.48;101362.45;465806;113;930580;-77
2022/10/09 00:30:55;;;;;;;4.01;3.71;;;;;;;11.68;69.48;101366.27;463121;112;922522;-77
2022/10/09 00:31:58;;;;;;;5.00;4.12;;;;;;;11.68;69.49;101365.41;472029;112;922549;-77
2022/10/09 00:33:02;;;;;;;5.08;3.71;;;;;;;11.68;69.51;101365.41;472146;112;930513;-77
2022/10/09 00:34:04;;;;;;;3.97;3.67;;;;;;;11.67;69.52;101371.92;472257;110;922743;-76
2022/10/09 00:35:07;;;;;;;3.79;3.53;;;;;;;11.67;69.56;101364.56;472125;112;930465;-77
2022/10/09 00:36:13;;;;;;;5.04;3.74;;;;;;;11.67;69.56;101372.77;472103;112;930338;-76
2022/10/09 00:37:25;;;;;;;4.17;3.78;;;;;;;11.67;69.63;101363.72;472107;112;923001;-78
2022/10/09 00:38:28;;;;;;;4.16;3.86;;;;;;;11.65;69.60;101361.19;472272;112;922473;-76
2022/10/09 00:39:30;;;;;;;4.29;3.84;;;;;;;11.64;69.65;101359.49;462694;114;922765;-77
2022/10/09 00:40:34;;;;;;;4.70;4.21;;;;;;;11.64;69.63;101358.64;454899;114;922605;-76
2022/10/09 00:41:37;;;;;;;3.82;3.51;;;;;;;11.64;69.66;101361.38;454952;114;922480;-77
2022/10/09 00:42:39;;;;;;;4.31;3.91;;;;;;;11.63;69.69;101360.53;454879;114;930598;-77
2022/10/09 00:43:48;;;;;;;4.67;4.22;;;;;;;11.64;69.67;101361.38;462978;112;923603;-77
2022/10/09 00:44:58;;;;;;;3.93;3.42;;;;;;;11.63;69.62;101363.27;472054;112;922988;-77
2022/10/09 00:46:01;;;;;;;3.94;3.53;;;;;;;11.64;69.70;101364.11;472015;112;922639;-78
2022/10/09 00:47:05;;;;;;;3.71;3.41;;;;;;;11.62;69.84;101367.06;472084;112;922872;-77
2022/10/09 00:48:10;;;;;;;4.58;3.62;;;;;;;11.63;69.78;101368.73;462723;114;922550;-77
2022/10/09 00:49:33;;;;;;;4.68;4.21;;;;;;;11.63;69.77;101359.72;465948;112;922610;-77
2022/10/09 00:50:46;;;;;;;4.96;4.01;;;;;;;11.62;69.82;101361.61;462344;114;922832;-77
2022/10/09 00:51:50;;;;;;;4.63;4.22;;;;;;;11.61;69.84;101365.37;464219;112;923068;-77
2022/10/09 00:52:57;;;;;;;4.50;4.18;;;;;;;11.61;69.85;101359.07;472033;112;922861;-77
2022/10/09 00:54:03;;;;;;;4.23;3.91;;;;;;;11.61;69.92;101362.64;465048;113;922985;-77
2022/10/09 00:55:08;;;;;;;4.24;3.89;;;;;;;11.61;69.90;101359.07;457421;114;923153;-78
2022/10/09 00:56:11;;;;;;;4.89;3.97;;;;;;;11.61;69.97;101359.07;457436;114;922963;-78
2022/10/09 00:57:14;;;;;;;4.74;4.34;;;;;;;11.61;69.96;101357.19;457274;114;922751;-77
2022/10/09 00:58:18;;;;;;;4.34;4.04;;;;;;;11.62;69.92;101355.30;445818;119;923082;-80
2022/10/09 00:59:22;;;;;;;5.05;4.55;;;;;;;11.61;70.00;101354.45;439976;118;922762;-77
2022/10/09 01:00:26;;;;;;;4.37;3.96;;;;;;;11.62;69.97;101356.14;456830;114;922981;-78
2022/10/09 01:01:30;;;;;;;4.94;4.33;;;;;;;11.63;69.96;101355.07;455198;114;923303;-77
2022/10/09 01:02:33;;;;;;;4.99;4.29;;;;;;;11.63;69.95;101359.72;465402;112;923162;-77
2022/10/09 01:03:39;;;;;;;4.61;4.17;;;;;;;11.63;69.94;101360.53;465093;113;922983;-76
2022/10/09 01:04:42;;;;;;;4.43;3.96;;;;;;;11.63;70.00;101352.34;465465;112;922803;-78
2022/10/09 01:06:05;;;;;;;4.47;4.14;;;;;;;11.65;69.96;101360.34;465099;114;922966;-77
2022/10/09 01:07:22;;;;;;;4.73;4.26;;;;;;;11.64;69.97;101355.91;467587;112;923516;-77
2022/10/09 01:08:38;;;;;;;4.74;3.99;;;;;;;11.64;70.00;101354.03;449379;115;923192;-77
2022/10/09 01:09:53;;;;;;;4.28;3.97;;;;;;;11.63;69.96;101356.98;454565;114;922947;-77
2022/10/09 01:11:01;;;;;;;4.21;3.82;;;;;;;11.63;70.03;101351.53;466654;112;922899;-77
2022/10/09 01:12:31;;;;;;;6.59;4.49;;;;;;;11.62;70.04;101355.30;465019;113;923133;-78
2022/10/09 01:13:44;;;;;;;4.04;3.71;;;;;;;11.61;70.07;101351.72;459438;114;922865;-76
2022/10/09 01:15:09;;;;;;;4.05;3.75;;;;;;;11.61;70.07;101359.91;450522;117;923118;-75
2022/10/09 01:16:15;;;;;;;4.65;3.70;;;;;;;11.61;70.10;101361.80;462737;113;923046;-76
2022/10/09 01:17:30;;;;;;;4.83;3.75;;;;;;;11.59;70.12;101361.99;458377;112;923112;-76
2022/10/09 01:18:48;;;;;;;3.99;3.67;;;;;;;11.59;70.12;101352.95;454163;115;923513;-76
2022/10/09 01:20:09;;;;;;;4.93;3.88;;;;;;;11.58;70.16;101360.30;464668;112;923163;-76
2022/10/09 01:21:31;;;;;;;4.25;3.85;;;;;;;11.57;70.10;101355.91;461776;113;923818;-77
2022/10/09 01:22:54;;;;;;;4.67;4.03;;;;;;;11.56;70.02;101351.48;459067;115;923025;-77
2022/10/09 01:24:09;;;;;;;4.49;4.09;;;;;;;11.56;70.08;101351.48;465382;112;923179;-76
2022/10/09 01:25:18;;;;;;;4.59;4.23;;;;;;;11.54;70.13;101353.56;464374;112;922980;-77
2022/10/09 01:26:46;;;;;;;4.72;4.32;;;;;;;11.54;70.13;101355.45;462677;112;922598;-76
2022/10/09 01:27:49;;;;;;;4.92;4.06;;;;;;;11.54;70.15;101352.72;465813;112;922937;-77
2022/10/09 01:28:55;;;;;;;4.09;3.68;;;;;;;11.52;70.22;101344.72;462964;112;922695;-77
2022/10/09 01:30:01;;;;;;;4.50;3.81;;;;;;;11.52;70.24;101349.37;460633;114;922847;-77
2022/10/09 01:31:06;;;;;;;5.27;4.56;;;;;;;11.52;70.14;101346.64;465094;111;923091;-76
2022/10/09 01:32:13;;;;;;;5.11;4.52;;;;;;;11.51;70.20;101353.14;470629;112;922656;-77
2022/10/09 01:33:17;;;;;;;4.96;4.19;;;;;;;11.52;70.12;101354.83;470858;112;923073;-77
2022/10/09 01:34:22;;;;;;;4.90;4.38;;;;;;;11.52;70.17;101346.64;462644;114;922760;-77
2022/10/09 01:35:26;;;;;;;4.79;4.39;;;;;;;11.52;70.17;101344.72;455156;114;922575;-78
2022/10/09 01:36:30;;;;;;;5.12;4.72;;;;;;;11.53;70.21;101345.56;455094;114;922703;-77
2022/10/09 01:37:34;;;;;;;4.69;4.29;;;;;;;11.53;70.18;101346.41;455000;114;922646;-77
2022/10/09 01:38:39;;;;;;;4.32;4.02;;;;;;;11.54;70.20;101352.72;454878;114;930548;-78
2022/10/09 01:39:44;;;;;;;4.82;4.43;;;;;;;11.53;70.21;101346.41;454975;114;928848;-76
2022/10/09 01:40:48;;;;;;;4.54;4.11;;;;;;;11.54;70.26;101352.72;455021;114;930694;-77
2022/10/09 01:41:53;;;;;;;6.37;4.84;;;;;;;11.54;70.21;101352.72;455043;114;923196;-77
2022/10/09 01:42:58;;;;;;;4.51;4.12;;;;;;;11.54;70.24;101353.56;455119;114;923500;-77
2022/10/09 01:44:01;;;;;;;5.44;4.89;;;;;;;11.55;70.24;101354.41;455094;114;922621;-78
2022/10/09 01:45:05;;;;;;;4.88;4.46;;;;;;;11.54;70.38;101348.10;462947;112;922588;-77
2022/10/09 01:46:23;;;;;;;5.08;4.67;;;;;;;11.55;70.34;101348.95;461743;114;923226;-78
2022/10/09 01:47:26;;;;;;;5.81;5.29;;;;;;;11.55;70.34;101344.33;455741;115;923026;-78
2022/10/09 01:48:29;;;;;;;6.03;4.70;;;;;;;11.55;70.34;101347.06;462051;112;922628;-76
2022/10/09 01:49:44;;;;;;;4.84;4.32;;;;;;;11.55;70.37;101340.75;470720;112;923006;-77
2022/10/09 01:50:54;;;;;;;5.48;4.80;;;;;;;11.54;70.41;101344.53;461080;115;922715;-78
2022/10/09 01:52:06;;;;;;;4.87;4.48;;;;;;;11.53;70.43;101340.11;461110;112;923090;-78
2022/10/09 01:53:12;;;;;;;5.12;4.57;;;;;;;11.53;70.46;101340.11;463346;112;922972;-77
2022/10/09 01:54:18;;;;;;;5.23;4.79;;;;;;;11.51;70.51;101340.33;471043;110;922998;-76
2022/10/09 01:55:31;;;;;;;6.24;4.93;;;;;;;11.50;70.58;101341.37;470323;112;922524;-77
2022/10/09 01:56:38;;;;;;;5.42;4.75;;;;;;;11.51;70.63;101344.95;463603;112;923221;-77
2022/10/09 01:57:59;;;;;;;4.91;4.48;;;;;;;11.50;70.59;101341.37;462766;112;922935;-77
2022/10/09 01:59:08;;;;;;;4.57;4.22;;;;;;;11.49;70.59;101342.41;473077;110;923044;-77
2022/10/09 02:00:15;;;;;;;5.09;4.64;;;;;;;11.49;70.64;101336.10;468599;113;922789;-77
2022/10/09 02:01:21;;;;;;;4.96;4.59;;;;;;;11.47;70.75;101341.75;469587;110;922874;-77
2022/10/09 02:02:25;;;;;;;5.55;5.08;;;;;;;11.47;70.67;101340.91;467524;112;923037;-77
2022/10/09 02:03:31;;;;;;;5.22;4.78;;;;;;;11.46;70.69;101336.52;462579;112;922560;-77
2022/10/09 02:04:37;;;;;;;5.18;4.53;;;;;;;11.46;70.69;101339.25;465235;112;923067;-77
2022/10/09 02:05:43;;;;;;;5.93;4.80;;;;;;;11.45;70.72;101341.13;464723;112;923032;-78
2022/10/09 02:06:47;;;;;;;5.39;4.99;;;;;;;11.45;70.74;101337.55;462728;112;923079;-78
2022/10/09 02:07:51;;;;;;;5.33;4.87;;;;;;;11.46;70.79;101342.83;470488;112;923174;-77
2022/10/09 02:08:54;;;;;;;5.77;5.22;;;;;;;11.46;70.78;101345.55;462528;112;923055;-77
2022/10/09 02:09:59;;;;;;;5.73;5.14;;;;;;;11.46;70.75;101339.25;470829;110;923125;-78
2022/10/09 02:11:02;;;;;;;6.68;5.77;;;;;;;11.46;70.83;101340.09;470289;112;922665;-77
2022/10/09 02:12:08;;;;;;;6.73;5.76;;;;;;;11.45;70.82;101343.87;462161;114;922909;-75
2022/10/09 02:13:12;;;;;;;6.39;5.52;;;;;;;11.45;70.93;101337.55;461547;114;923195;-77
2022/10/09 02:14:15;;;;;;;5.91;5.31;;;;;;;11.45;70.94;101334.83;453690;117;922746;-77
2022/10/09 02:15:19;;;;;;;5.24;4.83;;;;;;;11.46;70.87;101339.25;446191;117;930613;-77
2022/10/09 02:16:38;;;;;;;6.23;5.70;;;;;;;11.46;70.86;101336.52;450569;115;922667;-77
2022/10/09 02:17:44;;;;;;;5.46;4.97;;;;;;;11.45;70.99;101341.13;454706;115;930771;-77
2022/10/09 02:19:09;;;;;;;6.18;4.86;;;;;;;11.44;70.95;101335.87;454164;115;923088;-77
2022/10/09 02:20:19;;;;;;;5.48;5.03;;;;;;;11.44;70.95;101331.25;456611;115;923072;-77
2022/10/09 02:21:29;;;;;;;6.77;5.78;;;;;;;11.43;70.97;101328.71;454544;115;923005;-77
2022/10/09 02:22:33;;;;;;;6.12;5.33;;;;;;;11.43;70.97;101328.71;450727;115;923160;-76
2022/10/09 02:23:39;;;;;;;5.92;5.36;;;;;;;11.43;71.02;101325.98;462047;112;922556;-77
2022/10/09 02:24:42;;;;;;;5.61;5.21;;;;;;;11.43;71.07;101334.17;461417;115;930584;-77
2022/10/09 02:25:45;;;;;;;5.84;5.21;;;;;;;11.42;71.20;101322.41;453930;115;922667;-76
2022/10/09 02:26:51;;;;;;;5.70;5.27;;;;;;;11.43;71.13;101331.45;449134;116;923120;-76
2022/10/09 02:27:54;;;;;;;6.42;5.79;;;;;;;11.43;71.14;101325.98;449573;115;923138;-77
2022/10/09 02:28:57;;;;;;;5.34;4.89;;;;;;;11.43;71.13;101321.37;453982;115;922874;-76
2022/10/09 02:30:01;;;;;;;5.46;5.06;;;;;;;11.44;71.24;101325.79;451008;115;922736;-77
2022/10/09 02:31:08;;;;;;;5.66;5.14;;;;;;;11.44;71.19;101324.94;453593;114;923268;-77
2022/10/09 02:32:12;;;;;;;5.27;4.86;;;;;;;11.44;71.13;101314.87;448759;116;922972;-77
2022/10/09 02:33:15;;;;;;;5.01;4.49;;;;;;;11.44;71.15;101323.06;441728;118;922606;-76
2022/10/09 02:34:19;;;;;;;6.01;5.52;;;;;;;11.45;71.15;101315.71;452757;116;922597;-76
2022/10/09 02:35:22;;;;;;;5.48;4.96;;;;;;;11.45;71.18;101315.71;449441;117;922611;-76
2022/10/09 02:36:25;;;;;;;5.64;5.23;;;;;;;11.45;71.14;101324.75;453766;117;922640;-76
2022/10/09 02:37:28;;;;;;;10.31;5.51;;;;;;;11.46;71.17;101322.87;452409;117;922711;-77
2022/10/09 02:38:31;;;;;;;4.97;4.61;;;;;;;11.45;71.18;101323.91;453934;115;923201;-77
2022/10/09 02:39:35;;;;;;;5.34;4.44;;;;;;;11.45;71.22;101321.17;453752;117;922655;-77
2022/10/09 02:40:38;;;;;;;5.51;4.64;;;;;;;11.44;71.27;101314.87;454071;114;923402;-78
2022/10/09 02:41:41;;;;;;;4.32;3.81;;;;;;;11.44;71.25;101317.59;462433;114;922760;-78
2022/10/09 02:42:44;;;;;;;4.75;4.34;;;;;;;11.45;71.29;101315.71;462461;114;922845;-77
2022/10/09 02:43:47;;;;;;;4.85;4.53;;;;;;;11.45;71.33;101321.17;453814;117;922654;-78
2022/10/09 02:44:50;;;;;;;5.17;4.67;;;;;;;11.44;71.41;101316.75;452551;117;923042;-77
2022/10/09 02:45:52;;;;;;;7.44;4.86;;;;;;;11.44;71.36;101316.75;456246;112;922595;-77
2022/10/09 02:46:56;;;;;;;4.91;4.44;;;;;;;11.43;71.33;101318.64;460550;115;922555;-77
2022/10/09 02:47:59;;;;;;;4.92;4.46;;;;;;;11.43;71.42;101315.91;455188;114;922937;-76
2022/10/09 02:49:02;;;;;;;5.17;4.77;;;;;;;11.43;71.35;101315.06;455036;114;923140;-77
2022/10/09 02:50:06;;;;;;;6.44;5.14;;;;;;;11.43;71.42;101313.17;463027;112;922707;-78
2022/10/09 02:51:09;;;;;;;5.48;5.07;;;;;;;11.43;71.43;101309.59;471007;112;923235;-77
2022/10/09 02:52:12;;;;;;;5.65;5.11;;;;;;;11.42;71.41;101311.48;462706;112;922564;-77
2022/10/09 02:53:15;;;;;;;5.29;4.89;;;;;;;11.42;71.42;101306.02;454980;114;922590;-76
2022/10/09 02:54:18;;;;;;;5.28;4.53;;;;;;;11.43;71.44;101306.87;463123;112;922712;-77
2022/10/09 02:55:21;;;;;;;4.78;4.28;;;;;;;11.44;71.49;101311.30;462510;114;922582;-77
2022/10/09 02:56:24;;;;;;;4.96;4.56;;;;;;;11.43;71.46;101306.87;454911;114;922679;-76
2022/10/09 02:57:28;;;;;;;5.37;4.79;;;;;;;11.42;71.49;101300.56;454948;114;922964;-77
2022/10/09 02:58:32;;;;;;;5.12;4.77;;;;;;;11.43;71.49;101307.72;454972;114;922960;-77
2022/10/09 02:59:35;;;;;;;5.07;4.67;;;;;;;11.42;71.49;101300.56;463129;112;922595;-76
2022/10/09 03:00:38;;;;;;;5.88;5.24;;;;;;;11.43;71.52;101307.72;462521;114;922643;-76
2022/10/09 03:01:41;;;;;;;5.67;5.03;;;;;;;11.43;71.52;101307.72;455020;114;922626;-77
2022/10/09 03:02:45;;;;;;;5.08;4.47;;;;;;;11.43;71.60;101302.25;455016;114;922676;-76
2022/10/09 03:03:48;;;;;;;5.49;5.04;;;;;;;11.43;71.50;101312.33;455038;114;922753;-76
2022/10/09 03:04:51;;;;;;;4.61;4.21;;;;;;;11.43;71.48;101306.87;455024;114;931224;-77
2022/10/09 03:06:03;;;;;;;4.53;4.21;;;;;;;11.43;71.52;101304.98;455004;114;922735;-78
2022/10/09 03:07:06;;;;;;;4.43;4.11;;;;;;;11.43;71.51;101306.87;450239;115;923150;-77
2022/10/09 03:08:09;;;;;;;6.95;5.21;;;;;;;11.41;71.50;101304.33;453376;112;923137;-77
2022/10/09 03:09:12;;;;;;;5.29;4.79;;;;;;;11.41;71.50;101309.80;463268;112;922417;-76
2022/10/09 03:10:20;;;;;;;5.53;4.76;;;;;;;11.40;71.52;101308.13;463927;112;922533;-77
2022/10/09 03:11:24;;;;;;;4.59;4.26;;;;;;;11.40;71.55;101307.29;463674;112;923043;-75
2022/10/09 03:12:27;;;;;;;4.80;4.42;;;;;;;11.39;71.49;101303.71;461465;113;922483;-77
2022/10/09 03:13:30;;;;;;;5.37;4.76;;;;;;;11.40;71.50;101301.83;461307;112;922371;-77
2022/10/09 03:14:33;;;;;;;5.44;4.92;;;;;;;11.39;71.51;101300.98;471546;110;923034;-77
2022/10/09 03:15:36;;;;;;;5.36;4.86;;;;;;;11.38;71.50;101295.72;479233;110;922524;-77
2022/10/09 03:16:40;;;;;;;4.94;4.49;;;;;;;11.38;71.50;101290.25;465312;113;922695;-77
2022/10/09 03:17:42;;;;;;;5.03;4.62;;;;;;;11.38;71.52;101292.98;457313;114;922573;-77
2022/10/09 03:18:46;;;;;;;4.79;4.40;;;;;;;11.38;71.51;101295.72;457417;114;922618;-77
2022/10/09 03:19:49;;;;;;;4.71;4.39;;;;;;;11.37;71.62;101288.56;457408;114;923137;-77
2022/10/09 03:20:52;;;;;;;5.05;4.50;;;;;;;11.37;71.62;101288.56;457229;114;930755;-77
2022/10/09 03:21:55;;;;;;;6.24;4.26;;;;;;;11.37;71.55;101285.83;465411;112;922642;-77
2022/10/09 03:22:58;;;;;;;5.82;5.24;;;;;;;11.36;71.59;101286.91;465261;113;922636;-78
2022/10/09 03:24:01;;;;;;;5.14;4.73;;;;;;;11.36;71.67;101284.98;457259;114;922624;-76
2022/10/09 03:25:05;;;;;;;4.59;4.19;;;;;;;11.36;71.70;101278.71;457284;114;922646;-77
2022/10/09 03:26:12;;;;;;;4.63;4.22;;;;;;;11.35;71.64;101277.02;450788;115;923000;-77
2022/10/09 03:27:14;;;;;;;4.39;3.93;;;;;;;11.36;71.65;101275.98;450300;117;923440;-77
2022/10/09 03:28:17;;;;;;;4.72;4.29;;;;;;;11.34;71.68;101270.72;443165;117;922701;-79
2022/10/09 03:29:21;;;;;;;4.61;4.30;;;;;;;11.34;71.71;101278.06;450723;115;922754;-77
2022/10/09 03:30:24;;;;;;;4.70;3.96;;;;;;;11.35;71.72;101274.29;467227;113;922678;-77
2022/10/09 03:31:27;;;;;;;4.12;3.59;;;;;;;11.33;71.79;101277.22;452125;116;922741;-77
2022/10/09 03:32:32;;;;;;;5.11;4.09;;;;;;;11.35;71.79;101274.29;446262;116;922839;-76
2022/10/09 03:33:36;;;;;;;4.22;3.84;;;;;;;11.34;71.70;101275.33;447893;116;923084;-77
2022/10/09 03:34:39;;;;;;;4.81;4.41;;;;;;;11.33;71.72;101269.02;444841;117;922737;-77
2022/10/09 03:35:42;;;;;;;4.84;4.44;;;;;;;11.33;71.74;101268.18;446077;116;922729;-78
2022/10/09 03:36:45;;;;;;;5.66;4.41;;;;;;;11.33;71.75;101269.02;455796;114;923102;-78
2022/10/09 03:37:48;;;;;;;6.49;4.36;;;;;;;11.33;71.73;101265.45;463549;114;930692;-78
2022/10/09 03:38:51;;;;;;;5.17;4.56;;;;;;;11.32;71.77;101269.22;463550;114;922993;-76
2022/10/09 03:39:54;;;;;;;5.53;5.02;;;;;;;11.32;71.77;101267.34;455582;116;922801;-76
2022/10/09 03:40:58;;;;;;;4.64;4.15;;;;;;;11.32;71.78;101267.34;455728;114;922906;-78
2022/10/09 03:42:01;;;;;;;4.66;4.28;;;;;;;11.32;71.80;101271.95;455491;116;922755;-77
2022/10/09 03:43:04;;;;;;;6.44;4.43;;;;;;;11.33;71.76;101268.18;447959;116;923109;-77
2022/10/09 03:44:07;;;;;;;5.89;4.36;;;;;;;11.31;71.78;101271.11;455766;114;922926;-77
2022/10/09 03:45:10;;;;;;;5.41;4.53;;;;;;;11.31;71.78;101265.64;455540;116;923655;-78
2022/10/09 03:46:13;;;;;;;5.50;4.91;;;;;;;11.32;71.83;101266.48;447970;116;923019;-77
2022/10/09 03:47:16;;;;;;;4.70;4.25;;;;;;;11.32;71.86;101271.95;447559;116;922769;-75
2022/10/09 03:48:19;;;;;;;5.09;4.40;;;;;;;11.30;71.84;101270.26;455429;114;922566;-77
2022/10/09 03:49:22;;;;;;;5.47;4.80;;;;;;;11.31;71.87;101268.38;455590;116;923197;-76
2022/10/09 03:50:26;;;;;;;4.82;4.47;;;;;;;11.32;71.85;101274.68;448046;116;923062;-76
2022/10/09 03:51:29;;;;;;;4.62;4.09;;;;;;;11.30;71.87;101272.98;450842;114;923267;-76
2022/10/09 03:52:32;;;;;;;4.61;4.29;;;;;;;11.29;71.92;101265.87;445929;117;922663;-77
2022/10/09 03:53:35;;;;;;;5.11;4.37;;;;;;;11.29;71.84;101265.87;465359;112;922541;-77
2022/10/09 03:54:37;;;;;;;8.28;4.59;;;;;;;11.29;71.84;101274.06;465246;113;922528;-78
2022/10/09 03:55:41;;;;;;;4.50;4.16;;;;;;;11.30;71.90;101274.91;457364;114;922600;-77
2022/10/09 03:56:44;;;;;;;4.55;4.14;;;;;;;11.29;71.91;101276.79;455007;114;923060;-75
2022/10/09 03:57:47;;;;;;;5.75;4.66;;;;;;;11.29;71.89;101274.06;452793;115;922915;-77
2022/10/09 03:58:50;;;;;;;4.82;4.46;;;;;;;11.28;71.90;101277.83;453005;114;922862;-77
2022/10/09 03:59:53;;;;;;;5.09;4.55;;;;;;;11.29;71.99;101276.79;457300;114;922654;-77
2022/10/09 04:00:56;;;;;;;4.80;4.38;;;;;;;11.29;71.95;101274.06;465456;112;923338;-78
2022/10/09 04:01:59;;;;;;;4.81;4.43;;;;;;;11.29;71.87;101278.67;465218;113;922728;-77
2022/10/09 04:03:03;;;;;;;4.65;4.13;;;;;;;11.28;71.93;101283.29;465513;112;922701;-77
2022/10/09 04:04:06;;;;;;;4.97;4.42;;;;;;;11.29;71.92;101278.67;465161;113;922535;-76
2022/10/09 04:05:09;;;;;;;4.88;4.48;;;;;;;11.28;71.92;101280.56;461587;112;923057;-77
2022/10/09 04:06:13;;;;;;;6.71;4.30;;;;;;;11.30;71.99;101285.83;463091;112;922593;-77
2022/10/09 04:07:16;;;;;;;4.76;4.34;;;;;;;11.30;72.01;101283.09;462980;112;923096;-77
2022/10/09 04:08:19;;;;;;;5.04;4.50;;;;;;;11.29;71.97;101284.98;465401;112;922552;-77
2022/10/09 04:09:22;;;;;;;5.11;4.31;;;;;;;11.29;71.97;101284.98;465394;112;922543;-77
2022/10/09 04:10:26;;;;;;;5.69;4.06;;;;;;;11.29;72.05;101282.25;462922;112;922524;-77
2022/10/09 04:11:29;;;;;;;5.46;4.12;;;;;;;11.29;71.96;101284.98;462917;112;922712;-77
2022/10/09 04:12:32;;;;;;;4.18;3.76;;;;;;;11.30;71.95;101288.55;471300;110;922580;-77
2022/10/09 04:13:35;;;;;;;4.56;3.72;;;;;;;11.29;71.99;101284.98;479737;110;922535;-78
2022/10/09 04:14:38;;;;;;;6.01;4.14;;;;;;;11.29;72.05;101279.52;471121;112;923106;-76
2022/10/09 04:15:44;;;;;;;5.12;4.72;;;;;;;11.30;71.98;101278.45;471066;111;922586;-76
2022/10/09 04:16:48;;;;;;;4.74;4.36;;;;;;;11.29;72.07;101274.06;468268;112;923160;-77
2022/10/09 04:17:51;;;;;;;4.51;3.98;;;;;;;11.29;72.00;101274.06;460739;113;923073;-77
2022/10/09 04:18:54;;;;;;;5.12;4.33;;;;;;;11.29;72.00;101268.60;460309;113;923122;-77
2022/10/09 04:19:58;;;;;;;4.74;4.33;;;;;;;11.28;72.02;101266.91;469093;111;923101;-77
2022/10/09 04:21:01;;;;;;;5.28;4.55;;;;;;;11.29;72.01;101267.75;468729;113;922777;-77
2022/10/09 04:22:04;;;;;;;5.74;4.59;;;;;;;11.29;72.02;101271.33;460764;113;922533;-76
2022/10/09 04:23:06;;;;;;;4.83;4.43;;;;;;;11.29;72.05;101271.33;460754;113;922469;-77
2022/10/09 04:24:09;;;;;;;4.91;4.36;;;;;;;11.28;72.04;101272.37;460712;113;923039;-76
2022/10/09 04:25:13;;;;;;;4.06;3.55;;;;;;;11.28;72.03;101272.37;460760;113;923051;-77
2022/10/09 04:26:16;;;;;;;4.97;4.46;;;;;;;11.30;72.05;101269.45;460762;113;922520;-77
2022/10/09 04:27:19;;;;;;;4.19;3.81;;;;;;;11.29;72.07;101279.52;460843;113;922692;-77
2022/10/09 04:28:22;;;;;;;4.72;4.29;;;;;;;11.29;72.21;101273.22;460810;113;923021;-76
2022/10/09 04:29:26;;;;;;;6.02;4.10;;;;;;;11.29;72.14;101279.52;460830;113;922562;-77
2022/10/09 04:30:30;;;;;;;4.63;4.23;;;;;;;11.29;72.14;101282.25;456879;114;930517;-76
2022/10/09 04:31:33;;;;;;;5.02;4.45;;;;;;;11.30;72.16;101270.26;465213;111;930572;-77
2022/10/09 04:32:36;;;;;;;5.67;4.56;;;;;;;11.30;72.21;101278.45;465740;113;922925;-76
2022/10/09 04:33:40;;;;;;;4.26;3.92;;;;;;;11.32;72.17;101285.59;453451;114;923151;-78
2022/10/09 04:34:43;;;;;;;5.15;4.31;;;;;;;11.32;72.19;101286.45;457478;114;922564;-78
2022/10/09 04:35:49;;;;;;;5.09;4.32;;;;;;;11.33;72.21;101290.02;463040;112;922551;-76
2022/10/09 04:36:53;;;;;;;5.16;4.66;;;;;;;11.33;72.32;101279.09;462620;114;923599;-77
2022/10/09 04:37:55;;;;;;;6.30;4.36;;;;;;;11.33;72.21;101285.41;455090;114;923172;-78
2022/10/09 04:38:58;;;;;;;4.59;4.16;;;;;;;11.33;72.21;101290.87;463093;112;922578;-79
2022/10/09 04:40:01;;;;;;;4.44;4.04;;;;;;;11.34;72.20;101287.09;462761;114;922573;-75
2022/10/09 04:41:06;;;;;;;6.15;4.66;;;;;;;11.34;72.19;101287.09;455031;114;922575;-77
2022/10/09 04:42:09;;;;;;;4.19;3.68;;;;;;;11.35;72.17;101287.94;455087;114;922710;-78
2022/10/09 04:43:12;;;;;;;4.25;3.82;;;;;;;11.34;72.30;101292.56;462966;112;923094;-77
2022/10/09 04:44:15;;;;;;;4.81;4.36;;;;;;;11.36;72.18;101297.83;462595;114;922577;-77
2022/10/09 04:45:18;;;;;;;4.22;3.93;;;;;;;11.36;72.19;101298.64;454971;114;922748;-77
2022/10/09 04:46:22;;;;;;;4.92;4.24;;;;;;;11.38;72.21;101303.91;455001;114;923019;-77
2022/10/09 04:47:25;;;;;;;4.75;3.85;;;;;;;11.37;72.19;101296.75;463152;112;922663;-76
2022/10/09 04:48:28;;;;;;;4.15;3.85;;;;;;;11.36;72.18;101290.45;462518;114;930558;-76
2022/10/09 04:49:31;;;;;;;4.69;4.16;;;;;;;11.37;72.21;101297.59;454960;114;922532;-77
2022/10/09 04:50:39;;;;;;;4.41;4.08;;;;;;;11.37;72.28;101292.14;455061;114;923105;-77
2022/10/09 04:51:43;;;;;;;5.03;4.02;;;;;;;11.37;72.21;101292.14;457022;113;923086;-77
2022/10/09 04:52:46;;;;;;;4.44;3.99;;;;;;;11.37;72.17;101296.75;458458;113;922722;-77
2022/10/09 04:53:50;;;;;;;4.75;4.34;;;;;;;11.37;72.20;101291.29;455135;114;922749;-76
2022/10/09 04:54:52;;;;;;;4.56;4.16;;;;;;;11.36;72.15;101287.72;455205;113;930573;-77
2022/10/09 04:55:55;;;;;;;4.24;3.87;;;;;;;11.37;72.13;101291.29;458264;113;922750;-77
2022/10/09 04:56:59;;;;;;;4.48;4.14;;;;;;;11.37;72.14;101288.56;458221;113;922610;-78
2022/10/09 04:58:02;;;;;;;4.39;4.04;;;;;;;11.35;72.17;101282.48;458165;113;922739;-75
2022/10/09 04:59:05;;;;;;;5.43;4.42;;;;;;;11.36;72.19;101284.98;466462;111;923131;-76